HCMF

Bosaso Airport

Bosaso, Somalia
METAR HCMF 161300Z 36013KT CAVOK 26/21 Q1011
Observed Flight Rules
Jan-16 @ 13:00 UTC (5 hours ago) Visual Flight Rules
Wind Visibility Clouds
360° at 13 knots 10,000+ meters
  • Clear skies
Temperatures Readings
Current 26°C / 79°F
Dewpoint 21°C / 70°F
Humidity 74%
Altimeter 29.85" Hg
Pressure 1010.92 hPa
Elevation 2
METAR HCMF 161300Z 36013KT CAVOK 26/21 Q1011
Observed Flight Rules
Jan-16 @ 13:00 UTC
(5 hours ago)
VFR
Wind Visibility
360° at 13 knots 10,000+ meters
Clouds
  • Clear skies
Temperature Dewpoint
26°C / 79°F 21°C / 70°F
Humidity Altimeter Pressure
74% 29.85" Hg 1010.92 hPa